クアラルンプール の空港の天気 - METARとTAF

クアラルンプール国際空港 ( WMKK / KUL ) - マレーシア スランゴール州セパン
飛行場実況気象(Metar)
観測時間02/20 23:00 MYT (02/20 15:00 UTC)
風向・風速北北西 2m/s
視程10km以上
天気現象
少しの雲 雲底高度 520m
全天の4割程度の雲 雲底高度 4270m
全天の8割程度の雲 雲底高度 8530m
気温28℃
湿度74%
気圧1010hPa
METARWMKK 201500Z 34003KT 9999 FEW017CB SCT140 BKN280 28/23 Q1010 NOSIG
過去の天気等 Google飛行場航空写真 Wunderground天気予報

過去48時間のMETAR

飛行場予報(TAF)
発表時間: 2/20 19:00 MYT (2/20 11:00 UTC)
予報対象時間: 20日20時 MYT ~ 22日2時 MYT
風向・風速東北東 3m/s
視程10km以上
少しの積乱雲 雲底高度 520m
全天の4割程度の雲 雲底高度 4,270m
全天の8割程度の雲 雲底高度 8,530m
TAF WMKK 201100Z 2012/2118 06005KT 9999 FEW017CB SCT140 BKN280